sensor_id;sensor_type;location;lat;lon;timestamp;pressure;altitude;pressure_sealevel;temperature;humidity
46534;BME280;32260;52.008;4.752;2022-11-20T00:01:08;101491.44;;;-0.02;67.28
46534;BME280;32260;52.008;4.752;2022-11-20T00:03:35;101506.94;;;-0.05;66.90
46534;BME280;32260;52.008;4.752;2022-11-20T00:06:02;101496.38;;;-0.10;67.12
46534;BME280;32260;52.008;4.752;2022-11-20T00:08:29;101494.66;;;-0.09;66.92
46534;BME280;32260;52.008;4.752;2022-11-20T00:10:55;101488.56;;;-0.10;67.00
46534;BME280;32260;52.008;4.752;2022-11-20T00:13:21;101494.59;;;-0.11;66.70
46534;BME280;32260;52.008;4.752;2022-11-20T00:15:47;101491.06;;;-0.13;66.63
46534;BME280;32260;52.008;4.752;2022-11-20T00:18:14;101500.53;;;-0.15;66.74
46534;BME280;32260;52.008;4.752;2022-11-20T00:20:40;101496.09;;;-0.18;66.92
46534;BME280;32260;52.008;4.752;2022-11-20T00:23:06;101504.78;;;-0.19;67.00
46534;BME280;32260;52.008;4.752;2022-11-20T00:25:34;101500.44;;;-0.18;67.20
46534;BME280;32260;52.008;4.752;2022-11-20T00:28:01;101496.88;;;-0.20;67.64
46534;BME280;32260;52.008;4.752;2022-11-20T00:30:27;101493.34;;;-0.22;67.08
46534;BME280;32260;52.008;4.752;2022-11-20T00:32:53;101499.41;;;-0.23;66.96
46534;BME280;32260;52.008;4.752;2022-11-20T00:35:22;101493.22;;;-0.25;66.92
46534;BME280;32260;52.008;4.752;2022-11-20T00:37:48;101498.34;;;-0.28;67.09
46534;BME280;32260;52.008;4.752;2022-11-20T00:40:14;101497.44;;;-0.29;66.85
46534;BME280;32260;52.008;4.752;2022-11-20T00:42:40;101502.59;;;-0.30;67.11
46534;BME280;32260;52.008;4.752;2022-11-20T00:45:06;101493.91;;;-0.31;67.57
46534;BME280;32260;52.008;4.752;2022-11-20T00:47:32;101486.03;;;-0.33;67.51
46534;BME280;32260;52.008;4.752;2022-11-20T00:49:59;101489.59;;;-0.30;67.50
46534;BME280;32260;52.008;4.752;2022-11-20T00:52:25;101493.13;;;-0.28;67.34
46534;BME280;32260;52.008;4.752;2022-11-20T00:54:51;101491.38;;;-0.29;66.89
46534;BME280;32260;52.008;4.752;2022-11-20T00:57:17;101486.03;;;-0.33;67.02
46534;BME280;32260;52.008;4.752;2022-11-20T00:59:43;101480.91;;;-0.31;67.62
46534;BME280;32260;52.008;4.752;2022-11-20T01:02:09;101472.19;;;-0.31;67.19
46534;BME280;32260;52.008;4.752;2022-11-20T01:04:35;101466.97;;;-0.31;66.98
46534;BME280;32260;52.008;4.752;2022-11-20T01:07:01;101469.59;;;-0.31;67.20
46534;BME280;32260;52.008;4.752;2022-11-20T01:09:27;101475.56;;;-0.34;66.72
46534;BME280;32260;52.008;4.752;2022-11-20T01:11:53;101474.69;;;-0.35;67.07
46534;BME280;32260;52.008;4.752;2022-11-20T01:14:20;101473.78;;;-0.35;67.00
46534;BME280;32260;52.008;4.752;2022-11-20T01:16:49;101472.91;;;-0.36;66.81
46534;BME280;32260;52.008;4.752;2022-11-20T01:19:18;101485.94;;;-0.36;66.68
46534;BME280;32260;52.008;4.752;2022-11-20T01:21:46;101483.34;;;-0.36;66.77
46534;BME280;32260;52.008;4.752;2022-11-20T01:24:16;101472.91;;;-0.36;66.68
46534;BME280;32260;52.008;4.752;2022-11-20T01:26:46;101475.56;;;-0.34;67.38
46534;BME280;32260;52.008;4.752;2022-11-20T01:29:17;101476.47;;;-0.34;66.78
46534;BME280;32260;52.008;4.752;2022-11-20T01:31:44;101477.31;;;-0.35;67.14
46534;BME280;32260;52.008;4.752;2022-11-20T01:34:13;101463.34;;;-0.37;67.21
46534;BME280;32260;52.008;4.752;2022-11-20T01:36:41;101471.16;;;-0.37;67.13
46534;BME280;32260;52.008;4.752;2022-11-20T01:39:11;101455.53;;;-0.37;66.67
46534;BME280;32260;52.008;4.752;2022-11-20T01:41:38;101467.50;;;-0.42;66.35
46534;BME280;32260;52.008;4.752;2022-11-20T01:47:44;101453.63;;;-0.42;66.64
46534;BME280;32260;52.008;4.752;2022-11-20T01:50:17;101449.94;;;-0.47;67.47
46534;BME280;32260;52.008;4.752;2022-11-20T01:52:46;101454.53;;;-0.40;66.76
46534;BME280;32260;52.008;4.752;2022-11-20T01:55:19;101459.38;;;-0.51;67.44
46534;BME280;32260;52.008;4.752;2022-11-20T01:57:47;101462.72;;;-0.54;67.65
46534;BME280;32260;52.008;4.752;2022-11-20T02:00:16;101454.00;;;-0.56;66.67
46534;BME280;32260;52.008;4.752;2022-11-20T02:02:46;101470.50;;;-0.55;66.40
46534;BME280;32260;52.008;4.752;2022-11-20T02:06:19;101472.28;;;-0.54;67.01
46534;BME280;32260;52.008;4.752;2022-11-20T02:08:06;101469.56;;;-0.57;66.47
46534;BME280;32260;52.008;4.752;2022-11-20T02:10:34;101464.25;;;-0.60;66.36
46534;BME280;32260;52.008;4.752;2022-11-20T02:13:00;101472.88;;;-0.61;67.01
46534;BME280;32260;52.008;4.752;2022-11-20T02:15:47;101484.13;;;-0.62;67.19
46534;BME280;32260;52.008;4.752;2022-11-20T02:18:16;101479.00;;;-0.61;67.16
46534;BME280;32260;52.008;4.752;2022-11-20T02:20:45;101477.25;;;-0.60;67.12
46534;BME280;32260;52.008;4.752;2022-11-20T02:25:48;101468.66;;;-0.58;67.16
46534;BME280;32260;52.008;4.752;2022-11-20T02:28:17;101466.88;;;-0.59;67.61
46534;BME280;32260;52.008;4.752;2022-11-20T02:30:43;101464.19;;;-0.62;67.43
46534;BME280;32260;52.008;4.752;2022-11-20T02:33:09;101472.06;;;-0.60;67.46
46534;BME280;32260;52.008;4.752;2022-11-20T02:38:12;101462.38;;;-0.64;66.85
46534;BME280;32260;52.008;4.752;2022-11-20T02:40:39;101461.41;;;-0.67;66.56
46534;BME280;32260;52.008;4.752;2022-11-20T02:43:05;101453.53;;;-0.70;67.08
46534;BME280;32260;52.008;4.752;2022-11-20T02:45:32;101456.25;;;-0.65;67.25
46534;BME280;32260;52.008;4.752;2022-11-20T02:47:58;101453.63;;;-0.67;67.53
46534;BME280;32260;52.008;4.752;2022-11-20T02:50:24;101449.19;;;-0.69;67.40
46534;BME280;32260;52.008;4.752;2022-11-20T02:52:50;101446.53;;;-0.71;67.67
46534;BME280;32260;52.008;4.752;2022-11-20T02:55:16;101441.44;;;-0.68;67.08
46534;BME280;32260;52.008;4.752;2022-11-20T02:57:42;101440.59;;;-0.67;67.81
46534;BME280;32260;52.008;4.752;2022-11-20T03:00:09;101434.44;;;-0.69;67.35
46534;BME280;32260;52.008;4.752;2022-11-20T03:02:35;101438.78;;;-0.69;67.15
46534;BME280;32260;52.008;4.752;2022-11-20T03:05:02;101432.69;;;-0.70;67.15
46534;BME280;32260;52.008;4.752;2022-11-20T03:07:31;101436.94;;;-0.72;67.23
46534;BME280;32260;52.008;4.752;2022-11-20T03:09:57;101435.34;;;-0.68;67.52
46534;BME280;32260;52.008;4.752;2022-11-20T03:12:23;101426.75;;;-0.66;67.70
46534;BME280;32260;52.008;4.752;2022-11-20T03:14:49;101418.13;;;-0.64;68.01
46534;BME280;32260;52.008;4.752;2022-11-20T03:17:16;101414.63;;;-0.65;67.34
46534;BME280;32260;52.008;4.752;2022-11-20T03:19:42;101412.91;;;-0.64;67.78
46534;BME280;32260;52.008;4.752;2022-11-20T03:22:08;101408.41;;;-0.69;67.24
46534;BME280;32260;52.008;4.752;2022-11-20T03:24:34;101412.72;;;-0.71;67.08
46534;BME280;32260;52.008;4.752;2022-11-20T03:27:01;101406.56;;;-0.73;67.31
46534;BME280;32260;52.008;4.752;2022-11-20T03:29:27;101396.91;;;-0.75;67.61
46534;BME280;32260;52.008;4.752;2022-11-20T03:31:53;101387.38;;;-0.75;67.12
46534;BME280;32260;52.008;4.752;2022-11-20T03:34:19;101389.06;;;-0.77;67.46
46534;BME280;32260;52.008;4.752;2022-11-20T03:36:45;101389.84;;;-0.79;67.70
46534;BME280;32260;52.008;4.752;2022-11-20T03:39:11;101390.63;;;-0.82;67.72
46534;BME280;32260;52.008;4.752;2022-11-20T03:41:40;101380.22;;;-0.82;67.07
46534;BME280;32260;52.008;4.752;2022-11-20T03:44:09;101388.84;;;-0.83;67.48
46534;BME280;32260;52.008;4.752;2022-11-20T03:46:35;101391.41;;;-0.85;67.78
46534;BME280;32260;52.008;4.752;2022-11-20T03:49:02;101384.47;;;-0.84;67.60
46534;BME280;32260;52.008;4.752;2022-11-20T03:51:30;101385.31;;;-0.85;67.33
46534;BME280;32260;52.008;4.752;2022-11-20T03:53:58;101380.09;;;-0.85;67.27
46534;BME280;32260;52.008;4.752;2022-11-20T03:56:28;101374.06;;;-0.84;67.56
46534;BME280;32260;52.008;4.752;2022-11-20T03:58:55;101367.09;;;-0.85;67.61
46534;BME280;32260;52.008;4.752;2022-11-20T04:01:25;101368.03;;;-0.83;67.87
46534;BME280;32260;52.008;4.752;2022-11-20T04:03:53;101368.88;;;-0.84;67.72
46534;BME280;32260;52.008;4.752;2022-11-20T04:06:24;101373.13;;;-0.86;67.36
46534;BME280;32260;52.008;4.752;2022-11-20T04:08:51;101384.38;;;-0.87;67.72
46534;BME280;32260;52.008;4.752;2022-11-20T04:11:21;101377.50;;;-0.85;67.39
46534;BME280;32260;52.008;4.752;2022-11-20T04:13:50;101374.94;;;-0.84;67.71
46534;BME280;32260;52.008;4.752;2022-11-20T04:16:17;101369.81;;;-0.82;67.33
46534;BME280;32260;52.008;4.752;2022-11-20T04:18:43;101364.63;;;-0.82;67.88
46534;BME280;32260;52.008;4.752;2022-11-20T04:21:10;101355.06;;;-0.82;68.18
46534;BME280;32260;52.008;4.752;2022-11-20T04:23:36;101350.75;;;-0.81;67.43
46534;BME280;32260;52.008;4.752;2022-11-20T04:26:05;101340.34;;;-0.81;67.60
46534;BME280;32260;52.008;4.752;2022-11-20T04:28:32;101335.91;;;-0.84;67.48
46534;BME280;32260;52.008;4.752;2022-11-20T04:31:14;101336.91;;;-0.80;68.12
46534;BME280;32260;52.008;4.752;2022-11-20T04:33:41;101332.34;;;-0.87;67.98
46534;BME280;32260;52.008;4.752;2022-11-20T04:36:12;101340.06;;;-0.89;67.54
46534;BME280;32260;52.008;4.752;2022-11-20T04:38:39;101351.16;;;-0.94;67.78
46534;BME280;32260;52.008;4.752;2022-11-20T04:41:08;101356.38;;;-0.94;68.13
46534;BME280;32260;52.008;4.752;2022-11-20T04:43:35;101347.56;;;-0.98;68.18
46534;BME280;32260;52.008;4.752;2022-11-20T04:46:02;101338.03;;;-0.98;67.74
46534;BME280;32260;52.008;4.752;2022-11-20T04:48:29;101328.53;;;-0.97;68.28
46534;BME280;32260;52.008;4.752;2022-11-20T04:50:55;101332.84;;;-0.98;67.71
46534;BME280;32260;52.008;4.752;2022-11-20T04:53:22;101334.53;;;-1.00;67.96
46534;BME280;32260;52.008;4.752;2022-11-20T04:55:49;101344.06;;;-0.99;67.85
46534;BME280;32260;52.008;4.752;2022-11-20T04:58:15;101338.03;;;-0.98;67.55
46534;BME280;32260;52.008;4.752;2022-11-20T05:00:42;101334.63;;;-0.96;67.94
46534;BME280;32260;52.008;4.752;2022-11-20T05:03:08;101330.28;;;-0.96;67.87
46534;BME280;32260;52.008;4.752;2022-11-20T05:05:34;101324.25;;;-0.95;67.57
46534;BME280;32260;52.008;4.752;2022-11-20T05:08:01;101339.94;;;-0.93;67.24
46534;BME280;32260;52.008;4.752;2022-11-20T05:10:27;101343.41;;;-0.93;67.83
46534;BME280;32260;52.008;4.752;2022-11-20T05:12:53;101343.47;;;-0.91;67.22
46534;BME280;32260;52.008;4.752;2022-11-20T05:15:19;101333.97;;;-0.91;67.45
46534;BME280;32260;52.008;4.752;2022-11-20T05:17:48;101333.19;;;-0.88;67.75
46534;BME280;32260;52.008;4.752;2022-11-20T05:20:15;101329.63;;;-0.90;67.31
46534;BME280;32260;52.008;4.752;2022-11-20T05:22:41;101327.97;;;-0.88;67.17
46534;BME280;32260;52.008;4.752;2022-11-20T05:25:07;101333.19;;;-0.88;67.63
46534;BME280;32260;52.008;4.752;2022-11-20T05:27:33;101340.97;;;-0.88;67.12
46534;BME280;32260;52.008;4.752;2022-11-20T05:29:59;101338.38;;;-0.88;67.14
46534;BME280;32260;52.008;4.752;2022-11-20T05:32:25;101340.16;;;-0.87;67.73
46534;BME280;32260;52.008;4.752;2022-11-20T05:34:52;101328.97;;;-0.85;67.68
46534;BME280;32260;52.008;4.752;2022-11-20T05:37:18;101337.69;;;-0.83;67.75
46534;BME280;32260;52.008;4.752;2022-11-20T05:39:44;101352.53;;;-0.80;67.65
46534;BME280;32260;52.008;4.752;2022-11-20T05:42:10;101342.13;;;-0.80;67.82
46534;BME280;32260;52.008;4.752;2022-11-20T05:44:58;101337.84;;;-0.78;67.88
46534;BME280;32260;52.008;4.752;2022-11-20T05:47:25;101338.69;;;-0.79;67.89
46534;BME280;32260;52.008;4.752;2022-11-20T05:49:52;101337.84;;;-0.78;67.92
46534;BME280;32260;52.008;4.752;2022-11-20T05:52:18;101334.47;;;-0.75;68.14
46534;BME280;32260;52.008;4.752;2022-11-20T05:54:44;101337.25;;;-0.71;68.19
46534;BME280;32260;52.008;4.752;2022-11-20T05:57:10;101332.94;;;-0.69;67.81
46534;BME280;32260;52.008;4.752;2022-11-20T05:59:36;101329.53;;;-0.68;67.69
46534;BME280;32260;52.008;4.752;2022-11-20T06:02:02;101322.75;;;-0.62;67.52
46534;BME280;32260;52.008;4.752;2022-11-20T06:04:28;101329.03;;;-0.57;68.23
46534;BME280;32260;52.008;4.752;2022-11-20T06:06:54;101321.28;;;-0.54;68.02
46534;BME280;32260;52.008;4.752;2022-11-20T06:09:20;101333.47;;;-0.53;68.00
46534;BME280;32260;52.008;4.752;2022-11-20T06:11:46;101323.03;;;-0.55;68.07
46534;BME280;32260;52.008;4.752;2022-11-20T06:14:12;101317.91;;;-0.52;67.74
46534;BME280;32260;52.008;4.752;2022-11-20T06:16:38;101314.44;;;-0.52;68.17
46534;BME280;32260;52.008;4.752;2022-11-20T06:19:05;101301.41;;;-0.52;68.16
46534;BME280;32260;52.008;4.752;2022-11-20T06:21:31;101297.88;;;-0.54;67.57
46534;BME280;32260;52.008;4.752;2022-11-20T06:23:57;101301.47;;;-0.51;67.58
46534;BME280;32260;52.008;4.752;2022-11-20T06:26:25;101291.91;;;-0.50;67.98
46534;BME280;32260;52.008;4.752;2022-11-20T06:28:52;101290.22;;;-0.50;68.39
46534;BME280;32260;52.008;4.752;2022-11-20T06:31:21;101293.69;;;-0.49;67.93
46534;BME280;32260;52.008;4.752;2022-11-20T06:33:47;101302.44;;;-0.47;68.26
46534;BME280;32260;52.008;4.752;2022-11-20T06:36:15;101297.28;;;-0.45;67.88
46534;BME280;32260;52.008;4.752;2022-11-20T06:38:42;101285.22;;;-0.43;67.77
46534;BME280;32260;52.008;4.752;2022-11-20T06:41:13;101289.63;;;-0.41;67.91
46534;BME280;32260;52.008;4.752;2022-11-20T06:43:39;101292.19;;;-0.42;67.33
46534;BME280;32260;52.008;4.752;2022-11-20T06:46:06;101284.44;;;-0.41;67.88
46534;BME280;32260;52.008;4.752;2022-11-20T06:48:32;101282.69;;;-0.40;67.60
46534;BME280;32260;52.008;4.752;2022-11-20T06:50:58;101288.06;;;-0.36;67.77
46534;BME280;32260;52.008;4.752;2022-11-20T06:53:25;101285.53;;;-0.33;67.82
46534;BME280;32260;52.008;4.752;2022-11-20T06:55:51;101283.88;;;-0.30;68.34
46534;BME280;32260;52.008;4.752;2022-11-20T06:58:18;101278.78;;;-0.27;67.91
46534;BME280;32260;52.008;4.752;2022-11-20T07:00:44;101269.28;;;-0.25;68.34
46534;BME280;32260;52.008;4.752;2022-11-20T07:03:11;101268.56;;;-0.21;68.29
46534;BME280;32260;52.008;4.752;2022-11-20T07:05:38;101268.63;;;-0.18;68.39
46534;BME280;32260;52.008;4.752;2022-11-20T07:08:05;101261.00;;;-0.12;68.36
46534;BME280;32260;52.008;4.752;2022-11-20T07:10:31;101267.25;;;-0.07;68.11
46534;BME280;32260;52.008;4.752;2022-11-20T07:12:58;101274.38;;;-0.01;68.37
46534;BME280;32260;52.008;4.752;2022-11-20T07:15:25;101276.28;;;0.06;68.38
46534;BME280;32260;52.008;4.752;2022-11-20T07:17:51;101281.66;;;0.11;68.49
46534;BME280;32260;52.008;4.752;2022-11-20T07:20:17;101273.16;;;0.17;68.62
46534;BME280;32260;52.008;4.752;2022-11-20T07:22:43;101277.63;;;0.22;68.54
46534;BME280;32260;52.008;4.752;2022-11-20T07:25:10;101281.19;;;0.24;68.33
46534;BME280;32260;52.008;4.752;2022-11-20T07:27:36;101278.72;;;0.29;68.29
46534;BME280;32260;52.008;4.752;2022-11-20T07:30:03;101277.94;;;0.31;67.64
46534;BME280;32260;52.008;4.752;2022-11-20T07:32:30;101271.94;;;0.36;67.80
46534;BME280;32260;52.008;4.752;2022-11-20T07:34:56;101278.19;;;0.41;67.88
46534;BME280;32260;52.008;4.752;2022-11-20T07:37:22;101279.16;;;0.44;67.88
46534;BME280;32260;52.008;4.752;2022-11-20T07:39:49;101273.25;;;0.50;67.66
46534;BME280;32260;52.008;4.752;2022-11-20T07:42:15;101271.63;;;0.55;67.97
46534;BME280;32260;52.008;4.752;2022-11-20T07:44:41;101269.28;;;0.64;67.98
46534;BME280;32260;52.008;4.752;2022-11-20T07:47:07;101277.25;;;0.71;67.56
46534;BME280;32260;52.008;4.752;2022-11-20T07:49:33;101274.00;;;0.78;68.24
46534;BME280;32260;52.008;4.752;2022-11-20T07:51:59;101272.47;;;0.86;68.03
46534;BME280;32260;52.008;4.752;2022-11-20T07:54:25;101277.88;;;0.92;67.70
46534;BME280;32260;52.008;4.752;2022-11-20T07:56:51;101278.88;;;0.98;67.94
46534;BME280;32260;52.008;4.752;2022-11-20T07:59:17;101281.50;;;0.99;67.22
46534;BME280;32260;52.008;4.752;2022-11-20T08:01:43;101283.28;;;1.00;67.69
46534;BME280;32260;52.008;4.752;2022-11-20T08:04:09;101287.69;;;1.03;67.41
46534;BME280;32260;52.008;4.752;2022-11-20T08:06:36;101285.16;;;1.06;67.40
46534;BME280;32260;52.008;4.752;2022-11-20T08:09:02;101265.19;;;1.08;67.52
46534;BME280;32260;52.008;4.752;2022-11-20T08:11:29;101273.88;;;1.07;67.05
46534;BME280;32260;52.008;4.752;2022-11-20T08:14:15;101274.00;;;1.11;67.58
46534;BME280;32260;52.008;4.752;2022-11-20T08:16:45;101282.81;;;1.17;67.62
46534;BME280;32260;52.008;4.752;2022-11-20T08:19:12;101283.84;;;1.23;67.58
46534;BME280;32260;52.008;4.752;2022-11-20T08:21:39;101292.78;;;1.32;67.88
46534;BME280;32260;52.008;4.752;2022-11-20T08:24:05;101286.78;;;1.36;67.62
46534;BME280;32260;52.008;4.752;2022-11-20T08:26:32;101281.78;;;1.45;67.91
46534;BME280;32260;52.008;4.752;2022-11-20T08:28:59;101275.88;;;1.52;67.63
46534;BME280;32260;52.008;4.752;2022-11-20T08:31:26;101275.09;;;1.56;67.55
46534;BME280;32260;52.008;4.752;2022-11-20T08:33:53;101270.81;;;1.58;67.57
46534;BME280;32260;52.008;4.752;2022-11-20T08:36:20;101267.47;;;1.66;67.52
46534;BME280;32260;52.008;4.752;2022-11-20T08:38:48;101261.50;;;1.70;67.31
46534;BME280;32260;52.008;4.752;2022-11-20T08:41:14;101254.66;;;1.76;67.54
46534;BME280;32260;52.008;4.752;2022-11-20T08:44:02;101264.44;;;1.85;67.41
46534;BME280;32260;52.008;4.752;2022-11-20T08:46:39;101259.31;;;1.90;67.28
46534;BME280;32260;52.008;4.752;2022-11-20T08:49:10;101255.94;;;1.96;67.52
46534;BME280;32260;52.008;4.752;2022-11-20T08:51:37;101250.81;;;1.99;67.10
46534;BME280;32260;52.008;4.752;2022-11-20T08:54:04;101242.13;;;2.00;67.05
46534;BME280;32260;52.008;4.752;2022-11-20T08:56:30;101253.53;;;2.03;66.95
46534;BME280;32260;52.008;4.752;2022-11-20T08:58:56;101246.63;;;2.07;66.98
46534;BME280;32260;52.008;4.752;2022-11-20T09:01:25;101245.72;;;2.05;66.45
46534;BME280;32260;52.008;4.752;2022-11-20T09:03:51;101251.94;;;2.12;66.75
46534;BME280;32260;52.008;4.752;2022-11-20T09:06:17;101244.16;;;2.13;66.77
46534;BME280;32260;52.008;4.752;2022-11-20T09:08:44;101239.03;;;2.19;66.51
46534;BME280;32260;52.008;4.752;2022-11-20T09:11:10;101248.75;;;2.26;66.83
46534;BME280;32260;52.008;4.752;2022-11-20T09:13:37;101246.28;;;2.33;66.71
46534;BME280;32260;52.008;4.752;2022-11-20T09:16:05;101239.34;;;2.35;66.72
46534;BME280;32260;52.008;4.752;2022-11-20T09:18:33;101232.47;;;2.40;66.86
46534;BME280;32260;52.008;4.752;2022-11-20T09:21:00;101229.06;;;2.44;66.57
46534;BME280;32260;52.008;4.752;2022-11-20T09:23:30;101221.22;;;2.44;66.27
46534;BME280;32260;52.008;4.752;2022-11-20T09:25:57;101212.59;;;2.48;66.24
46534;BME280;32260;52.008;4.752;2022-11-20T09:28:25;101201.25;;;2.49;66.59
46534;BME280;32260;52.008;4.752;2022-11-20T09:30:52;101204.06;;;2.58;66.77
46534;BME280;32260;52.008;4.752;2022-11-20T09:33:18;101206.78;;;2.65;66.64
46534;BME280;32260;52.008;4.752;2022-11-20T09:35:44;101196.44;;;2.71;67.02
46534;BME280;32260;52.008;4.752;2022-11-20T09:38:11;101196.56;;;2.79;66.76
46534;BME280;32260;52.008;4.752;2022-11-20T09:40:43;101195.84;;;2.87;66.54
46534;BME280;32260;52.008;4.752;2022-11-20T09:49:03;101177.91;;;3.09;66.55
46534;BME280;32260;52.008;4.752;2022-11-20T09:54:39;101180.53;;;3.09;66.12
46534;BME280;32260;52.008;4.752;2022-11-20T09:57:12;101177.94;;;3.14;65.78
46534;BME280;32260;52.008;4.752;2022-11-20T09:59:46;101164.03;;;3.16;66.07
46534;BME280;32260;52.008;4.752;2022-11-20T10:02:52;101158.88;;;3.22;66.55
46534;BME280;32260;52.008;4.752;2022-11-20T10:05:12;101162.50;;;3.31;66.14
46534;BME280;32260;52.008;4.752;2022-11-20T10:08:47;101163.44;;;3.34;66.25
46534;BME280;32260;52.008;4.752;2022-11-20T10:10:36;101155.66;;;3.39;66.14
46534;BME280;32260;52.008;4.752;2022-11-20T10:13:24;101138.25;;;3.44;66.13
46534;BME280;32260;52.008;4.752;2022-11-20T10:24:48;101108.19;;;3.83;66.50
46534;BME280;32260;52.008;4.752;2022-11-20T10:27:56;101107.34;;;3.87;66.73
46534;BME280;32260;52.008;4.752;2022-11-20T10:30:23;101097.72;;;3.85;66.54
46534;BME280;32260;52.008;4.752;2022-11-20T10:33:13;101103.00;;;3.89;66.19
46534;BME280;32260;52.008;4.752;2022-11-20T10:35:45;101094.22;;;3.84;66.54
46534;BME280;32260;52.008;4.752;2022-11-20T10:38:21;101077.63;;;3.84;66.58
46534;BME280;32260;52.008;4.752;2022-11-20T10:40:53;101079.41;;;3.86;66.78
46534;BME280;32260;52.008;4.752;2022-11-20T10:43:40;101067.19;;;3.88;66.97
46534;BME280;32260;52.008;4.752;2022-11-20T10:46:18;101059.38;;;3.93;66.54
46534;BME280;32260;52.008;4.752;2022-11-20T10:48:46;101054.97;;;3.91;66.73
46534;BME280;32260;52.008;4.752;2022-11-20T10:51:23;101058.53;;;3.96;66.95
46534;BME280;32260;52.008;4.752;2022-11-20T10:55:10;101047.13;;;3.94;66.82
46534;BME280;32260;52.008;4.752;2022-11-20T10:56:50;101048.97;;;4.01;66.80
46534;BME280;32260;52.008;4.752;2022-11-20T10:59:50;101040.28;;;4.08;66.90
46534;BME280;32260;52.008;4.752;2022-11-20T11:02:21;101033.28;;;4.07;66.44
46534;BME280;32260;52.008;4.752;2022-11-20T11:04:50;101030.66;;;4.09;67.13
46534;BME280;32260;52.008;4.752;2022-11-20T11:07:27;101031.53;;;4.06;66.81
46534;BME280;32260;52.008;4.752;2022-11-20T11:09:57;101036.81;;;4.11;67.42
46534;BME280;32260;52.008;4.752;2022-11-20T11:12:26;101035.13;;;4.14;67.74
46534;BME280;32260;52.008;4.752;2022-11-20T11:14:54;101027.25;;;4.14;67.42
46534;BME280;32260;52.008;4.752;2022-11-20T11:19:59;101016.81;;;4.24;67.97
46534;BME280;32260;52.008;4.752;2022-11-20T11:22:30;101023.88;;;4.28;67.52
46534;BME280;32260;52.008;4.752;2022-11-20T11:24:57;101009.00;;;4.25;67.90
46534;BME280;32260;52.008;4.752;2022-11-20T11:27:24;100998.50;;;4.25;67.86
46534;BME280;32260;52.008;4.752;2022-11-20T11:29:50;100983.69;;;4.32;68.18
46534;BME280;32260;52.008;4.752;2022-11-20T11:32:27;100981.09;;;4.35;68.01
46534;BME280;32260;52.008;4.752;2022-11-20T11:35:02;100975.00;;;4.42;68.08
46534;BME280;32260;52.008;4.752;2022-11-20T11:37:34;100968.03;;;4.44;68.14
46534;BME280;32260;52.008;4.752;2022-11-20T11:40:02;100959.25;;;4.42;69.02
46534;BME280;32260;52.008;4.752;2022-11-20T11:42:30;100957.53;;;4.47;68.77
46534;BME280;32260;52.008;4.752;2022-11-20T11:44:59;100942.69;;;4.48;69.13
46534;BME280;32260;52.008;4.752;2022-11-20T11:55:38;100912.22;;;4.70;69.37
46534;BME280;32260;52.008;4.752;2022-11-20T12:00:54;100889.53;;;4.81;69.00
46534;BME280;32260;52.008;4.752;2022-11-20T12:03:29;100870.28;;;4.85;68.79
46534;BME280;32260;52.008;4.752;2022-11-20T12:06:21;100871.19;;;4.86;68.56
46534;BME280;32260;52.008;4.752;2022-11-20T12:08:59;100865.03;;;4.84;68.85
46534;BME280;32260;52.008;4.752;2022-11-20T12:11:38;100869.38;;;4.80;68.67
46534;BME280;32260;52.008;4.752;2022-11-20T12:16:41;100878.13;;;4.81;68.71
46534;BME280;32260;52.008;4.752;2022-11-20T12:19:12;100886.91;;;4.83;68.75
46534;BME280;32260;52.008;4.752;2022-11-20T12:30:10;100859.81;;;4.89;68.68
46534;BME280;32260;52.008;4.752;2022-11-20T12:33:02;100860.66;;;4.89;68.94
46534;BME280;32260;52.008;4.752;2022-11-20T12:35:35;100857.19;;;4.95;69.11
46534;BME280;32260;52.008;4.752;2022-11-20T12:43:39;100851.06;;;4.93;69.51
46534;BME280;32260;52.008;4.752;2022-11-20T12:46:46;100850.16;;;4.91;69.57
46534;BME280;32260;52.008;4.752;2022-11-20T12:49:37;100844.03;;;4.93;69.77
46534;BME280;32260;52.008;4.752;2022-11-20T12:52:26;100833.56;;;4.95;70.02
46534;BME280;32260;52.008;4.752;2022-11-20T12:55:11;100826.56;;;5.00;69.49
46534;BME280;32260;52.008;4.752;2022-11-20T12:57:43;100830.06;;;5.02;69.67
46534;BME280;32260;52.008;4.752;2022-11-20T13:00:19;100822.19;;;5.00;69.70
46534;BME280;32260;52.008;4.752;2022-11-20T13:03:33;100801.19;;;4.97;70.00
46534;BME280;32260;52.008;4.752;2022-11-20T13:06:22;100799.44;;;4.98;69.67
46534;BME280;32260;52.008;4.752;2022-11-20T13:08:40;100788.03;;;4.94;70.33
46534;BME280;32260;52.008;4.752;2022-11-20T13:11:32;100788.06;;;5.05;70.00
46534;BME280;32260;52.008;4.752;2022-11-20T13:14:24;100786.31;;;5.01;70.03
46534;BME280;32260;52.008;4.752;2022-11-20T13:16:57;100777.53;;;5.02;70.55
46534;BME280;32260;52.008;4.752;2022-11-20T13:19:24;100766.19;;;5.01;69.97
46534;BME280;32260;52.008;4.752;2022-11-20T13:21:51;100762.69;;;5.02;70.42
46534;BME280;32260;52.008;4.752;2022-11-20T13:27:19;100758.31;;;5.09;70.49
46534;BME280;32260;52.008;4.752;2022-11-20T13:29:58;100751.31;;;5.04;70.73
46534;BME280;32260;52.008;4.752;2022-11-20T13:32:27;100758.28;;;5.03;70.87
46534;BME280;32260;52.008;4.752;2022-11-20T13:35:02;100760.94;;;5.08;70.91
46534;BME280;32260;52.008;4.752;2022-11-20T13:43:01;100749.56;;;5.16;70.92
46534;BME280;32260;52.008;4.752;2022-11-20T13:45:30;100738.19;;;5.13;71.14
46534;BME280;32260;52.008;4.752;2022-11-20T13:48:00;100735.56;;;5.11;71.33
46534;BME280;32260;52.008;4.752;2022-11-20T13:50:46;100726.81;;;5.18;71.31
46534;BME280;32260;52.008;4.752;2022-11-20T13:53:30;100718.91;;;5.14;71.33
46534;BME280;32260;52.008;4.752;2022-11-20T14:01:50;100700.53;;;5.03;71.07
46534;BME280;32260;52.008;4.752;2022-11-20T14:04:25;100698.78;;;5.08;71.10
46534;BME280;32260;52.008;4.752;2022-11-20T14:06:52;100691.78;;;5.07;71.23
46534;BME280;32260;52.008;4.752;2022-11-20T14:09:28;100684.78;;;5.12;71.44
46534;BME280;32260;52.008;4.752;2022-11-20T14:11:55;100688.25;;;5.08;71.60
46534;BME280;32260;52.008;4.752;2022-11-20T14:14:23;100689.16;;;5.07;71.89
46534;BME280;32260;52.008;4.752;2022-11-20T14:16:50;100670.78;;;5.07;71.63
46534;BME280;32260;52.008;4.752;2022-11-20T14:22:19;100657.66;;;5.15;71.43